Time;durP1;ratioP1;P1;durP2;ratioP2;P2;SDS_P1;SDS_P2;PMS_P1;PMS_P2;Temp;Humidity;BMP_temperature;BMP_pressure;BME280_temperature;BME280_humidity;BME280_pressure;Samples;Min_cycle;Max_cycle;Signal;HPM_P1;HPM_P2
2023/07/29 00:02:33;;;;;;;0.32;0.32;;;;;;;18.20;100.00;99916.69;5076950;28;20046;-75
2023/07/29 00:05:18;;;;;;;4.05;0.50;;;;;;;18.19;100.00;99913.06;5085319;28;20123;-75
2023/07/29 00:08:05;;;;;;;0.63;0.30;;;;;;;18.20;100.00;99916.69;5106725;28;20036;-75
2023/07/29 00:10:50;;;;;;;1.40;0.43;;;;;;;18.21;100.00;99916.31;5095126;28;20526;-75
2023/07/29 00:13:36;;;;;;;1.33;0.40;;;;;;;18.16;100.00;99919.38;5091425;28;20423;-75
2023/07/29 00:16:22;;;;;;;2.08;0.60;;;;;;;18.21;100.00;99919.13;5089462;28;20028;-75
2023/07/29 00:19:08;;;;;;;0.90;0.47;;;;;;;18.20;100.00;99903.47;5095001;28;20399;-75
2023/07/29 00:21:54;;;;;;;1.05;0.45;;;;;;;18.24;100.00;99903.53;5096658;28;20110;-76
2023/07/29 00:24:39;;;;;;;1.10;0.50;;;;;;;18.23;100.00;99901.94;5080379;28;20036;-76
2023/07/29 00:27:25;;;;;;;1.75;0.50;;;;;;;18.24;100.00;99915.59;5108969;28;20092;-75
2023/07/29 00:30:11;;;;;;;1.00;0.60;;;;;;;18.25;100.00;99906.00;5077581;28;20461;-75
2023/07/29 00:32:57;;;;;;;0.50;0.40;;;;;;;18.27;100.00;99900.00;5073924;28;20062;-76
2023/07/29 00:35:43;;;;;;;0.73;0.40;;;;;;;18.28;100.00;99893.22;5076205;28;20036;-76
2023/07/29 00:38:29;;;;;;;3.20;0.57;;;;;;;18.29;100.00;99895.66;5076603;28;20077;-75
2023/07/29 00:41:15;;;;;;;1.17;0.57;;;;;;;18.30;100.00;99893.66;5094074;28;20477;-76
2023/07/29 00:44:00;;;;;;;1.63;0.60;;;;;;;18.35;100.00;99892.59;5078413;28;20032;-75
2023/07/29 00:46:47;;;;;;;0.65;0.35;;;;;;;18.32;100.00;99882.88;5108250;28;20027;-75
2023/07/29 00:49:33;;;;;;;0.93;0.30;;;;;;;18.34;100.00;99886.16;5093114;28;20059;-75
2023/07/29 00:52:19;;;;;;;2.88;0.50;;;;;;;18.34;100.00;99874.91;5081592;28;20035;-75
2023/07/29 00:55:05;;;;;;;3.90;0.55;;;;;;;18.33;100.00;99881.72;5075407;28;20062;-76
2023/07/29 00:57:54;;;;;;;1.48;0.50;;;;;;;18.37;100.00;99876.19;5077034;28;20526;-76
2023/07/29 01:00:39;;;;;;;1.52;0.50;;;;;;;18.34;100.00;99880.53;5114569;28;20036;-75
2023/07/29 01:03:25;;;;;;;1.35;0.50;;;;;;;18.32;100.00;99882.88;5077419;28;20095;-75
2023/07/29 01:06:35;;;;;;;0.70;0.40;;;;;;;18.33;100.00;99873.28;5090886;28;20040;-75
2023/07/29 01:09:42;;;;;;;0.82;0.50;;;;;;;18.31;100.00;99876.44;5081368;28;20051;-76
2023/07/29 01:12:50;;;;;;;1.20;0.90;;;;;;;18.32;100.00;99871.66;5119146;28;20028;-76
2023/07/29 01:15:58;;;;;;;0.98;0.40;;;;;;;18.34;100.00;99860.84;5112462;28;20039;-75
2023/07/29 01:18:44;;;;;;;0.60;0.50;;;;;;;18.36;100.00;99861.31;5101213;28;20028;-75
2023/07/29 01:21:30;;;;;;;1.73;0.50;;;;;;;18.34;100.00;99858.03;5079702;28;20035;-75
2023/07/29 01:24:16;;;;;;;1.95;0.60;;;;;;;18.36;100.00;99855.69;5100280;28;20500;-75
2023/07/29 01:27:04;;;;;;;0.93;0.43;;;;;;;18.33;100.00;99850.81;5076240;28;20035;-75
2023/07/29 01:29:50;;;;;;;1.20;0.40;;;;;;;18.31;100.00;99845.53;5092947;28;20054;-75
2023/07/29 01:33:24;;;;;;;1.48;0.60;;;;;;;18.32;100.00;99843.53;5084169;28;20548;-75
2023/07/29 01:36:18;;;;;;;;;;;;;;;18.34;100.00;99846.81;5092958;28;20425;-76
2023/07/29 01:39:05;;;;;;;1.67;0.60;;;;;;;18.36;100.00;99843.63;5089864;28;19995;-76
2023/07/29 01:41:50;;;;;;;1.85;0.80;;;;;;;18.35;100.00;99842.81;5108860;28;20047;-76
2023/07/29 01:44:36;;;;;;;2.95;0.60;;;;;;;18.35;100.00;99845.63;5097942;28;20110;-75
2023/07/29 01:47:22;;;;;;;1.67;0.80;;;;;;;18.37;100.00;99846.06;5065877;28;20433;-76
2023/07/29 01:50:09;;;;;;;2.78;0.80;;;;;;;18.33;100.00;99850.81;5118552;28;20035;-75
2023/07/29 01:52:55;;;;;;;1.50;0.50;;;;;;;18.35;100.00;99842.81;5104426;28;20103;-75
2023/07/29 01:55:42;;;;;;;3.58;0.60;;;;;;;18.37;100.00;99848.88;5081283;28;20457;-75
2023/07/29 01:58:27;;;;;;;3.25;0.60;;;;;;;18.37;100.00;99842.44;5076231;28;20040;-75
2023/07/29 02:01:13;;;;;;;1.25;0.60;;;;;;;18.36;100.00;99844.47;5074828;28;20044;-75
2023/07/29 02:03:59;;;;;;;2.40;0.70;;;;;;;18.36;100.00;99844.47;5098630;28;20030;-75
2023/07/29 02:06:45;;;;;;;1.27;0.65;;;;;;;18.38;100.00;99853.31;5077502;28;20031;-75
2023/07/29 02:09:31;;;;;;;2.05;0.60;;;;;;;18.36;100.00;99852.06;5117589;28;20048;-75
2023/07/29 02:12:17;;;;;;;2.78;0.65;;;;;;;18.38;100.00;99847.69;5075367;28;20120;-75
2023/07/29 02:15:04;;;;;;;2.05;0.82;;;;;;;18.43;100.00;99843.81;5067892;28;20071;-75
2023/07/29 02:17:50;;;;;;;1.80;0.52;;;;;;;18.42;100.00;99848.63;5076500;28;20043;-75
2023/07/29 02:20:35;;;;;;;2.45;0.60;;;;;;;18.42;100.00;99847.81;5075390;28;20040;-75
2023/07/29 02:23:21;;;;;;;1.02;0.57;;;;;;;18.44;100.00;99842.63;5086901;28;20035;-74
2023/07/29 02:26:07;;;;;;;0.98;0.52;;;;;;;18.44;100.00;99843.47;5116225;28;20054;-76
2023/07/29 02:28:53;;;;;;;1.60;0.70;;;;;;;18.41;100.00;99830.09;5098629;28;20038;-75
2023/07/29 02:31:39;;;;;;;0.85;0.45;;;;;;;18.41;100.00;99835.72;5094655;28;20028;-76
2023/07/29 02:34:24;;;;;;;1.27;0.60;;;;;;;18.42;100.00;99830.94;5078348;28;20038;-76
2023/07/29 02:37:10;;;;;;;3.13;0.90;;;;;;;18.42;100.00;99820.50;5105164;28;20031;-76
2023/07/29 02:39:56;;;;;;;3.22;0.60;;;;;;;18.41;100.00;99832.09;5087822;28;20028;-77
2023/07/29 02:42:42;;;;;;;2.30;0.85;;;;;;;18.42;100.00;99830.94;5067988;28;20031;-76
2023/07/29 02:45:28;;;;;;;2.38;0.60;;;;;;;18.41;100.00;99824.47;5088921;28;20034;-76
2023/07/29 02:48:14;;;;;;;2.45;0.80;;;;;;;18.43;100.00;99822.13;5093859;28;20028;-76
2023/07/29 02:51:00;;;;;;;3.45;0.63;;;;;;;18.42;100.00;99819.69;5087361;28;20484;-76
2023/07/29 02:53:46;;;;;;;1.50;0.60;;;;;;;18.40;100.00;99817.25;5063456;28;20115;-76
2023/07/29 02:56:32;;;;;;;2.38;0.70;;;;;;;18.40;100.00;99811.63;5088383;28;20028;-76
2023/07/29 02:59:17;;;;;;;3.22;0.90;;;;;;;18.41;100.00;99813.22;5095278;28;20039;-76
2023/07/29 03:02:03;;;;;;;1.25;0.68;;;;;;;18.42;100.00;99811.25;5066855;28;20031;-76
2023/07/29 03:04:49;;;;;;;2.50;0.70;;;;;;;18.40;100.00;99816.44;5088792;28;20028;-76
2023/07/29 03:07:35;;;;;;;1.25;0.60;;;;;;;18.39;100.00;99815.63;5092860;28;20031;-76
2023/07/29 03:10:22;;;;;;;1.45;0.63;;;;;;;18.39;100.00;99826.84;5097412;28;20031;-75
2023/07/29 03:13:08;;;;;;;2.20;0.75;;;;;;;18.38;100.00;99825.22;5087560;28;20516;-76
2023/07/29 03:15:54;;;;;;;1.40;0.70;;;;;;;18.38;100.00;99822.41;5043561;28;20041;-75
2023/07/29 03:18:40;;;;;;;3.28;0.70;;;;;;;18.40;100.00;99817.25;5028617;28;20390;-76
2023/07/29 03:21:26;;;;;;;3.15;0.60;;;;;;;18.38;100.00;99819.59;5029429;28;20037;-76
2023/07/29 03:24:11;;;;;;;3.08;0.88;;;;;;;18.38;100.00;99815.97;5029989;28;20123;-75
2023/07/29 03:26:57;;;;;;;2.33;0.70;;;;;;;18.38;100.00;99822.41;5012739;28;20053;-76
2023/07/29 03:29:43;;;;;;;2.35;0.80;;;;;;;18.39;100.00;99821.25;5017424;28;20139;-76
2023/07/29 03:32:29;;;;;;;2.65;0.70;;;;;;;18.42;100.00;99819.69;5032795;28;20503;-76
2023/07/29 03:35:15;;;;;;;1.55;0.70;;;;;;;18.36;100.00;99807.91;5060521;28;20033;-76
2023/07/29 03:38:00;;;;;;;1.92;0.80;;;;;;;18.36;100.00;99809.88;5046600;28;20118;-76
2023/07/29 03:40:47;;;;;;;1.73;0.70;;;;;;;18.41;100.00;99798.38;5043244;28;20044;-76
2023/07/29 03:43:33;;;;;;;3.50;0.98;;;;;;;18.39;100.00;99806.38;5041440;28;20041;-76
2023/07/29 03:46:21;;;;;;;1.45;0.60;;;;;;;18.35;100.00;99803.44;5035243;28;20493;-75
2023/07/29 03:49:07;;;;;;;2.05;0.80;;;;;;;18.37;100.00;99817.97;5064336;28;20037;-76
2023/07/29 03:51:52;;;;;;;3.28;0.80;;;;;;;18.35;100.00;99809.06;5057923;28;20070;-76
2023/07/29 03:54:38;;;;;;;1.52;0.80;;;;;;;18.35;100.00;99808.25;5050312;28;20039;-76
2023/07/29 03:57:24;;;;;;;3.55;0.70;;;;;;;18.32;100.00;99809.81;5050526;28;20033;-76
2023/07/29 04:00:10;;;;;;;2.10;0.77;;;;;;;18.35;100.00;99814.69;5043399;28;20116;-76
2023/07/29 04:02:56;;;;;;;3.58;0.57;;;;;;;18.35;100.00;99817.50;5042492;28;20037;-75
2023/07/29 04:05:42;;;;;;;1.92;0.68;;;;;;;18.34;100.00;99806.63;5043428;28;20033;-76
2023/07/29 04:08:27;;;;;;;1.60;0.60;;;;;;;18.30;100.00;99810.19;5053908;28;20556;-76
2023/07/29 04:11:13;;;;;;;2.50;0.80;;;;;;;18.29;100.00;99811.34;5046469;28;20032;-75
2023/07/29 04:13:59;;;;;;;2.60;0.90;;;;;;;18.24;100.00;99819.22;5057208;28;20045;-76
2023/07/29 04:16:45;;;;;;;2.50;0.90;;;;;;;18.19;100.00;99814.72;5045506;28;20456;-75
2023/07/29 04:19:31;;;;;;;2.92;1.15;;;;;;;18.22;100.00;99815.97;5061194;28;20103;-76
2023/07/29 04:22:16;;;;;;;2.90;0.80;;;;;;;18.21;100.00;99819.97;5059057;28;20143;-75
2023/07/29 04:25:04;;;;;;;2.65;0.90;;;;;;;18.18;100.00;99821.50;5055563;28;20036;-76
2023/07/29 04:27:50;;;;;;;1.40;0.73;;;;;;;18.19;100.00;99816.69;5031369;28;20036;-75
2023/07/29 04:30:36;;;;;;;3.20;1.02;;;;;;;18.12;100.00;99820.13;5039944;28;20048;-75
2023/07/29 04:33:21;;;;;;;2.22;0.70;;;;;;;18.11;100.00;99820.50;5047695;28;20049;-75
2023/07/29 04:36:07;;;;;;;3.75;0.90;;;;;;;18.10;100.00;99828.09;5049426;28;20081;-75
2023/07/29 04:38:53;;;;;;;2.90;0.82;;;;;;;18.12;100.00;99822.94;5056735;28;20042;-75
2023/07/29 04:41:39;;;;;;;3.63;0.70;;;;;;;18.08;100.00;99836.91;5052793;28;20116;-75
2023/07/29 04:44:25;;;;;;;2.50;0.80;;;;;;;18.08;100.00;99836.91;5053916;28;20044;-75
2023/07/29 04:47:11;;;;;;;1.80;0.82;;;;;;;18.06;100.00;99836.44;5057528;28;20167;-75
2023/07/29 04:49:57;;;;;;;2.17;0.80;;;;;;;18.09;100.00;99830.09;5076601;28;20042;-75
2023/07/29 04:52:43;;;;;;;1.50;0.70;;;;;;;18.11;100.00;99840.16;5056053;28;20093;-75
2023/07/29 04:55:29;;;;;;;2.72;0.75;;;;;;;18.09;100.00;99841.34;5045989;28;20031;-75
2023/07/29 04:58:14;;;;;;;2.75;0.93;;;;;;;18.11;100.00;99828.91;5072004;28;20063;-75
2023/07/29 05:01:02;;;;;;;1.50;0.90;;;;;;;18.14;100.00;99842.28;5037623;28;20485;-75
2023/07/29 05:03:47;;;;;;;2.30;0.95;;;;;;;18.15;100.00;99839.09;5041178;28;20036;-75
2023/07/29 05:06:33;;;;;;;1.73;0.73;;;;;;;18.16;100.00;99835.09;5030776;28;20119;-75
2023/07/29 05:09:22;;;;;;;2.40;0.70;;;;;;;18.20;100.00;99836.00;5052221;28;20037;-75
2023/07/29 05:12:08;;;;;;;2.17;0.80;;;;;;;18.20;100.00;99832.38;5057492;28;20090;-75
2023/07/29 05:14:54;;;;;;;1.35;0.80;;;;;;;18.19;100.00;99828.78;5033296;28;20561;-75
2023/07/29 05:17:41;;;;;;;2.08;0.90;;;;;;;18.22;100.00;99832.81;5057115;28;20529;-75
2023/07/29 05:20:26;;;;;;;2.78;0.98;;;;;;;18.22;100.00;99833.66;5056984;28;20025;-76
2023/07/29 05:23:12;;;;;;;2.65;0.90;;;;;;;18.23;100.00;99834.47;5050144;28;20063;-75
2023/07/29 05:25:58;;;;;;;6.22;0.80;;;;;;;18.22;100.00;99832.81;5077130;28;20032;-75
2023/07/29 05:28:44;;;;;;;2.53;0.88;;;;;;;18.26;100.00;99836.56;5076744;28;20036;-75
2023/07/29 05:31:30;;;;;;;1.80;0.82;;;;;;;18.25;100.00;99832.94;5057475;28;20036;-75
2023/07/29 05:34:15;;;;;;;1.33;0.65;;;;;;;18.29;100.00;99835.84;5058110;28;20038;-75
2023/07/29 05:37:01;;;;;;;2.33;0.90;;;;;;;18.31;100.00;99837.09;5053983;28;20059;-75
2023/07/29 05:39:47;;;;;;;1.85;0.80;;;;;;;18.33;100.00;99828.31;5076474;28;20055;-75
2023/07/29 05:42:33;;;;;;;2.85;0.80;;;;;;;18.37;100.00;99817.97;5045903;28;20498;-75
2023/07/29 05:45:20;;;;;;;2.40;0.73;;;;;;;18.38;100.00;99822.41;5054397;28;20035;-75
2023/07/29 05:48:05;;;;;;;1.90;0.88;;;;;;;18.41;100.00;99806.81;5057211;28;20055;-75
2023/07/29 05:50:51;;;;;;;2.03;1.10;;;;;;;18.41;100.00;99818.84;5063221;28;20040;-76
2023/07/29 05:53:37;;;;;;;1.95;0.70;;;;;;;18.44;100.00;99818.16;5041924;28;20052;-76
2023/07/29 05:56:23;;;;;;;1.95;0.75;;;;;;;18.46;100.00;99817.78;5060748;28;20108;-76
2023/07/29 05:59:09;;;;;;;1.05;0.70;;;;;;;18.49;100.00;99823.47;5071197;28;20035;-76
2023/07/29 06:01:56;;;;;;;2.05;0.80;;;;;;;18.54;100.00;99820.41;5060750;28;20024;-76
2023/07/29 06:04:41;;;;;;;0.90;0.70;;;;;;;18.56;100.00;99820.03;5044280;28;20041;-75
2023/07/29 06:07:29;;;;;;;1.73;0.80;;;;;;;18.58;100.00;99828.91;5070324;28;20040;-76
2023/07/29 06:10:18;;;;;;;2.40;0.82;;;;;;;18.63;100.00;99827.81;5056220;28;20040;-75
2023/07/29 06:13:04;;;;;;;1.60;0.80;;;;;;;18.65;100.00;99833.91;5049871;28;20044;-75
2023/07/29 06:15:50;;;;;;;3.00;1.08;;;;;;;18.67;100.00;99826.75;5088447;28;20036;-75
2023/07/29 06:18:36;;;;;;;1.42;0.80;;;;;;;18.71;100.00;99833.25;5084500;28;20089;-75
2023/07/29 06:21:22;;;;;;;1.88;0.80;;;;;;;18.74;100.00;99824.09;5089971;28;20028;-75
2023/07/29 06:24:07;;;;;;;2.17;0.73;;;;;;;18.77;100.00;99831.00;5098938;28;20031;-75
2023/07/29 06:26:53;;;;;;;2.17;0.70;;;;;;;18.79;100.00;99837.09;5096672;28;20080;-76
2023/07/29 06:29:39;;;;;;;1.35;0.55;;;;;;;18.83;100.00;99835.16;5079213;28;20122;-76
2023/07/29 06:32:25;;;;;;;0.90;0.68;;;;;;;18.85;100.00;99838.44;5071440;28;20118;-76
2023/07/29 06:35:11;;;;;;;1.50;0.63;;;;;;;18.90;100.00;99838.16;5094918;28;20103;-76
2023/07/29 06:37:56;;;;;;;0.85;0.50;;;;;;;18.94;100.00;99846.66;5092845;28;20032;-76
2023/07/29 06:40:42;;;;;;;0.80;0.55;;;;;;;18.97;100.00;99845.94;5088081;28;20058;-76
2023/07/29 06:43:28;;;;;;;1.70;0.63;;;;;;;19.00;100.00;99855.63;5084423;28;20089;-76
2023/07/29 06:46:14;;;;;;;1.30;0.63;;;;;;;19.01;100.00;99852.47;5093562;28;20035;-77
2023/07/29 06:49:00;;;;;;;0.90;0.60;;;;;;;19.07;100.00;99847.38;5079017;28;20028;-77
2023/07/29 06:51:45;;;;;;;1.30;0.60;;;;;;;19.10;100.00;99843.81;5074785;28;20491;-77
2023/07/29 06:54:31;;;;;;;2.50;0.63;;;;;;;19.13;100.00;99857.16;5117225;28;20063;-77
2023/07/29 06:57:17;;;;;;;1.05;0.55;;;;;;;19.15;100.00;99857.59;5088567;28;20031;-77
2023/07/29 07:00:03;;;;;;;0.95;0.60;;;;;;;19.19;100.00;99858.50;5101714;28;20443;-77
2023/07/29 07:02:49;;;;;;;1.55;0.60;;;;;;;19.22;100.00;99862.56;5075274;28;20032;-76
2023/07/29 07:05:35;;;;;;;1.23;0.60;;;;;;;19.21;100.00;99861.75;5117726;28;20032;-76
2023/07/29 07:08:21;;;;;;;1.80;0.60;;;;;;;19.23;100.00;99859.41;5077059;28;20115;-76
2023/07/29 07:11:09;;;;;;;1.48;0.73;;;;;;;19.23;100.00;99858.59;5073549;28;20080;-76
2023/07/29 07:13:54;;;;;;;1.00;0.50;;;;;;;19.27;100.00;99860.28;5089439;28;20131;-76
2023/07/29 07:16:40;;;;;;;1.10;0.70;;;;;;;19.34;100.00;99856.81;5077041;28;20036;-77
2023/07/29 07:19:26;;;;;;;0.80;0.40;;;;;;;19.46;100.00;99862.28;5096014;28;20031;-76
2023/07/29 07:22:12;;;;;;;1.10;0.60;;;;;;;19.60;100.00;99870.22;5081997;28;20031;-76
2023/07/29 07:24:58;;;;;;;2.28;0.60;;;;;;;19.75;100.00;99863.75;5085920;28;20397;-76
2023/07/29 07:27:44;;;;;;;1.42;0.60;;;;;;;19.88;100.00;99870.03;5089246;28;20126;-76
2023/07/29 07:30:29;;;;;;;1.65;0.70;;;;;;;20.00;100.00;99860.59;5088364;28;20537;-76
2023/07/29 07:33:15;;;;;;;1.38;0.57;;;;;;;20.19;100.00;99871.81;5096341;28;20039;-76
2023/07/29 07:36:01;;;;;;;0.85;0.60;;;;;;;20.36;100.00;99872.53;5077490;28;20239;-76
2023/07/29 07:38:47;;;;;;;1.38;0.75;;;;;;;20.51;100.00;99875.22;5074002;28;20035;-76
2023/07/29 07:41:32;;;;;;;1.10;0.60;;;;;;;20.68;100.00;99878.75;5094576;28;20031;-77
2023/07/29 07:44:19;;;;;;;1.00;0.50;;;;;;;20.84;100.00;99884.22;5080859;28;20042;-76
2023/07/29 07:47:05;;;;;;;2.40;0.60;;;;;;;20.98;100.00;99871.16;5074713;28;20515;-76
2023/07/29 07:49:51;;;;;;;1.55;0.50;;;;;;;21.14;100.00;99882.28;5093083;28;20062;-76
2023/07/29 07:52:36;;;;;;;2.33;0.60;;;;;;;21.27;100.00;99882.06;5092552;28;20095;-76
2023/07/29 07:55:22;;;;;;;1.42;0.68;;;;;;;21.39;100.00;99885.47;5074858;28;20030;-76
2023/07/29 07:58:08;;;;;;;0.88;0.63;;;;;;;21.48;100.00;99881.56;5093034;28;20046;-76
2023/07/29 08:01:01;;;;;;;0.98;0.70;;;;;;;21.56;100.00;99881.28;5098485;28;20031;-76
2023/07/29 08:03:47;;;;;;;0.80;0.68;;;;;;;21.60;100.00;99870.84;5070613;28;20039;-76
2023/07/29 08:06:33;;;;;;;2.63;0.70;;;;;;;21.70;100.00;99877.00;5106347;28;20391;-76
2023/07/29 08:09:18;;;;;;;1.42;0.70;;;;;;;21.75;100.00;99883.13;5109692;28;20412;-76
2023/07/29 08:12:04;;;;;;;1.20;0.60;;;;;;;21.82;100.00;99866.25;5120421;28;20028;-77
2023/07/29 08:14:50;;;;;;;1.33;0.70;;;;;;;21.93;100.00;99883.34;5081340;28;20046;-76
2023/07/29 08:17:36;;;;;;;1.33;0.80;;;;;;;22.06;100.00;99870.59;5093126;28;20036;-77
2023/07/29 08:20:22;;;;;;;2.25;0.50;;;;;;;22.23;100.00;99872.00;5100842;28;20040;-77
2023/07/29 08:23:08;;;;;;;1.60;0.60;;;;;;;22.41;100.00;99865.69;5069335;28;20077;-77
2023/07/29 08:25:55;;;;;;;0.77;0.50;;;;;;;22.65;100.00;99862.28;5102484;28;20032;-77
2023/07/29 08:28:41;;;;;;;1.67;0.52;;;;;;;22.91;100.00;99868.94;5099577;28;20062;-77
2023/07/29 08:31:27;;;;;;;1.52;0.60;;;;;;;23.11;100.00;99878.00;5081513;28;20058;-77
2023/07/29 08:34:13;;;;;;;1.55;0.82;;;;;;;23.33;100.00;99874.09;5105689;28;20475;-76
2023/07/29 08:36:59;;;;;;;1.77;0.70;;;;;;;23.53;100.00;99876.63;5086483;28;20036;-77
2023/07/29 08:39:45;;;;;;;3.05;0.82;;;;;;;23.78;100.00;99882.41;5092283;28;20369;-77
2023/07/29 08:42:32;;;;;;;2.13;0.60;;;;;;;23.99;100.00;99891.00;5107775;28;20127;-77
2023/07/29 08:45:20;;;;;;;1.77;0.60;;;;;;;24.21;100.00;99876.88;5077425;28;20422;-77
2023/07/29 08:48:10;;;;;;;1.58;0.93;;;;;;;24.43;100.00;99872.03;5104395;28;20403;-79
2023/07/29 08:50:56;;;;;;;1.98;0.70;;;;;;;24.60;100.00;99882.66;5075705;28;20040;-77
2023/07/29 08:53:41;;;;;;;1.48;0.68;;;;;;;24.74;100.00;99879.81;5064810;28;20118;-77
2023/07/29 08:56:27;;;;;;;1.45;0.82;;;;;;;24.84;100.00;99874.50;5090781;28;20036;-77
2023/07/29 08:59:13;;;;;;;1.88;0.90;;;;;;;24.98;100.00;99880.19;5091223;28;20123;-75
2023/07/29 09:01:59;;;;;;;3.47;1.00;;;;;;;25.06;100.00;99884.63;5083177;28;20376;-72
2023/07/29 09:04:45;;;;;;;2.08;0.57;;;;;;;25.12;100.00;99893.56;5091852;28;20140;-84
2023/07/29 09:07:31;;;;;;;2.67;0.98;;;;;;;25.21;100.00;99890.31;5077429;28;20127;-75
2023/07/29 09:10:17;;;;;;;1.10;0.80;;;;;;;25.34;100.00;99891.53;5098313;28;20445;-75
2023/07/29 09:13:04;;;;;;;1.75;0.90;;;;;;;25.46;100.00;99885.38;5077463;28;20044;-75
2023/07/29 09:15:49;;;;;;;1.70;0.80;;;;;;;25.59;100.00;99880.88;5108246;28;20036;-74
2023/07/29 09:18:35;;;;;;;1.60;0.80;;;;;;;25.73;100.00;99887.75;5056455;28;20150;-74
2023/07/29 09:21:28;;;;;;;1.98;0.60;;;;;;;25.84;100.00;99882.84;5077000;28;20043;-75
2023/07/29 09:24:16;;;;;;;3.58;0.75;;;;;;;25.95;100.00;99889.28;5114304;28;20035;-76
2023/07/29 09:27:02;;;;;;;4.80;1.08;;;;;;;26.04;100.00;99883.13;5071205;28;20119;-81
2023/07/29 09:29:47;;;;;;;3.05;0.88;;;;;;;26.15;100.00;99885.94;5037627;28;20455;-81
2023/07/29 09:32:33;;;;;;;2.08;0.85;;;;;;;26.24;100.00;99887.09;5051696;28;20479;-81
2023/07/29 09:35:19;;;;;;;2.10;1.02;;;;;;;26.35;100.00;99884.16;5072032;28;20040;-81
2023/07/29 09:38:05;;;;;;;2.65;0.90;;;;;;;26.44;100.00;99883.69;5091754;28;20035;-81
2023/07/29 09:40:51;;;;;;;1.98;0.80;;;;;;;26.52;100.00;99886.13;5063455;28;20121;-81
2023/07/29 09:43:37;;;;;;;2.88;1.00;;;;;;;26.60;100.00;99891.75;5059976;28;20038;-81
2023/07/29 09:46:24;;;;;;;2.97;0.88;;;;;;;26.68;100.00;99891.28;5057205;28;20029;-82
2023/07/29 09:49:10;;;;;;;1.17;0.80;;;;;;;26.80;100.00;99895.69;5067527;28;20032;-81
2023/07/29 09:51:56;;;;;;;1.83;0.73;;;;;;;26.93;100.00;99891.06;5072061;28;20028;-81
2023/07/29 09:54:43;;;;;;;1.85;0.63;;;;;;;27.12;100.00;99891.72;5065457;28;20449;-81
2023/07/29 09:57:28;;;;;;;1.80;0.85;;;;;;;27.28;100.00;99894.84;5089411;28;20088;-82
2023/07/29 10:00:14;;;;;;;2.28;0.80;;;;;;;27.46;100.00;99897.47;5075826;28;20036;-82
2023/07/29 10:03:00;;;;;;;4.28;0.85;;;;;;;27.70;100.00;99892.72;5089619;28;20036;-81
2023/07/29 10:05:46;;;;;;;1.65;0.75;;;;;;;27.91;100.00;99900.22;5062253;28;20036;-82
2023/07/29 10:08:35;;;;;;;1.95;0.80;;;;;;;28.10;100.00;99895.91;5054114;28;20038;-81
2023/07/29 10:11:21;;;;;;;1.58;0.60;;;;;;;28.33;100.00;99895.16;5056701;28;20396;-82
2023/07/29 10:14:06;;;;;;;1.90;0.93;;;;;;;28.50;98.37;99890.44;5055937;28;20557;-81
2023/07/29 10:16:52;;;;;;;1.42;0.80;;;;;;;28.68;96.40;99893.03;5069004;28;20044;-82
2023/07/29 10:19:38;;;;;;;1.83;0.75;;;;;;;28.86;97.78;99887.84;5043602;28;20039;-82
2023/07/29 10:22:25;;;;;;;4.43;1.10;;;;;;;29.07;100.00;99886.66;5052972;28;20025;-82
2023/07/29 10:25:18;;;;;;;1.17;0.90;;;;;;;29.23;99.66;99891.69;5079249;28;20513;-82
2023/07/29 10:28:08;;;;;;;3.85;0.75;;;;;;;29.40;94.61;99901.19;5037812;28;20067;-81
2023/07/29 10:30:53;;;;;;;1.27;0.88;;;;;;;29.49;82.49;99900.59;5071470;28;20049;-82
2023/07/29 10:33:39;;;;;;;3.83;0.90;;;;;;;29.64;82.21;99892.56;5088848;28;20027;-82
2023/07/29 10:36:25;;;;;;;1.60;0.70;;;;;;;29.80;84.43;99904.88;5088729;28;20032;-82
2023/07/29 10:39:12;;;;;;;2.10;1.30;;;;;;;29.94;78.15;99906.66;5088458;28;20125;-82
2023/07/29 10:42:02;;;;;;;1.92;1.30;;;;;;;30.10;87.21;99900.19;5073741;28;20046;-82
2023/07/29 10:44:49;;;;;;;2.47;1.10;;;;;;;30.27;81.92;99906.78;5081688;28;20042;-82
2023/07/29 10:47:35;;;;;;;2.35;1.00;;;;;;;30.36;67.77;99892.66;5088634;28;20031;-82
2023/07/29 10:50:21;;;;;;;4.72;0.80;;;;;;;30.45;74.26;99901.47;5088659;28;20028;-82
2023/07/29 10:53:07;;;;;;;1.80;0.57;;;;;;;30.52;69.53;99899.66;5074562;28;20031;-82
2023/07/29 10:55:53;;;;;;;1.55;0.60;;;;;;;30.67;69.71;99883.72;5102830;28;20461;-82
2023/07/29 10:58:38;;;;;;;4.05;1.00;;;;;;;30.78;71.17;99881.41;5074008;28;20547;-82
2023/07/29 11:01:33;;;;;;;2.20;1.10;;;;;;;30.86;71.17;99885.72;5074426;28;20023;-82
2023/07/29 11:04:29;;;;;;;3.42;1.02;;;;;;;30.94;68.60;99892.09;5089056;28;20570;-82
2023/07/29 11:07:14;;;;;;;2.97;0.90;;;;;;;31.04;60.20;99890.22;5102682;28;20043;-82
2023/07/29 11:10:01;;;;;;;1.98;0.70;;;;;;;31.10;63.58;99894.16;5102236;28;20028;-82
2023/07/29 11:12:54;;;;;;;1.85;0.70;;;;;;;31.17;64.01;99894.78;5071827;28;20427;-83
2023/07/29 11:15:40;;;;;;;2.25;0.70;;;;;;;31.34;67.82;99898.41;5060498;28;20038;-83
2023/07/29 11:18:30;;;;;;;2.22;0.65;;;;;;;31.46;62.21;99896.06;5035197;28;20040;-82
2023/07/29 11:21:16;;;;;;;2.55;0.85;;;;;;;31.60;64.63;99892.81;5066335;28;20036;-83
2023/07/29 11:24:01;;;;;;;2.30;0.80;;;;;;;31.71;61.69;99898.25;5063790;28;20036;-83
2023/07/29 11:26:47;;;;;;;1.88;0.80;;;;;;;31.79;58.45;99893.91;5061508;28;20206;-83
2023/07/29 11:29:33;;;;;;;2.25;0.80;;;;;;;31.87;59.06;99891.59;5048870;28;20058;-83
2023/07/29 11:32:19;;;;;;;2.35;0.77;;;;;;;31.93;57.99;99890.63;5090246;28;20066;-83
2023/07/29 11:35:09;;;;;;;2.75;0.90;;;;;;;31.98;57.12;99895.81;5077944;28;20034;-82
2023/07/29 11:37:56;;;;;;;1.35;0.77;;;;;;;32.01;55.79;99894.06;5079139;28;20035;-83
2023/07/29 11:40:42;;;;;;;1.95;0.88;;;;;;;32.09;56.00;99894.66;5093385;28;20192;-83
2023/07/29 11:43:28;;;;;;;1.95;0.90;;;;;;;32.15;59.06;99896.53;5093360;28;20039;-83
2023/07/29 11:46:14;;;;;;;3.10;1.05;;;;;;;32.19;56.58;99905.84;5092414;28;20024;-83
2023/07/29 11:48:59;;;;;;;0.95;0.60;;;;;;;32.27;58.10;99900.69;5078195;28;20085;-83
2023/07/29 11:51:45;;;;;;;1.38;0.60;;;;;;;32.33;59.18;99903.78;5077452;28;20034;-82
2023/07/29 11:54:31;;;;;;;2.08;0.85;;;;;;;32.37;57.40;99898.72;5077859;28;20066;-82
2023/07/29 11:57:18;;;;;;;1.67;0.80;;;;;;;32.35;55.05;99896.31;5067994;28;20028;-83
2023/07/29 12:00:06;;;;;;;1.85;0.77;;;;;;;32.28;53.75;99908.81;5076391;28;20036;-83
2023/07/29 12:02:52;;;;;;;1.60;0.68;;;;;;;32.31;58.39;99900.56;5076538;28;20040;-82
2023/07/29 12:05:37;;;;;;;1.98;1.00;;;;;;;32.28;55.58;99900.19;5075969;28;20039;-82
2023/07/29 12:08:23;;;;;;;2.63;0.85;;;;;;;32.18;55.91;99909.97;5075985;28;20055;-82
2023/07/29 12:11:09;;;;;;;1.80;0.75;;;;;;;32.10;56.57;99902.84;5088569;28;20036;-82
2023/07/29 12:13:55;;;;;;;1.42;0.75;;;;;;;31.96;57.19;99906.16;5083492;28;20051;-82
2023/07/29 12:16:42;;;;;;;4.13;0.80;;;;;;;31.86;58.50;99905.16;5058274;28;20032;-83
2023/07/29 12:19:35;;;;;;;2.08;0.88;;;;;;;31.72;59.89;99912.13;5065273;28;20103;-82
2023/07/29 12:22:21;;;;;;;2.47;0.80;;;;;;;31.66;57.93;99907.41;5069192;28;20039;-82
2023/07/29 12:25:07;;;;;;;2.42;0.80;;;;;;;31.51;58.58;99901.25;5063855;28;20040;-82
2023/07/29 12:27:53;;;;;;;1.75;0.88;;;;;;;31.44;59.52;99908.00;5051269;28;20027;-82
2023/07/29 12:30:42;;;;;;;2.15;0.82;;;;;;;31.31;58.19;99904.22;5090718;28;20050;-82
2023/07/29 12:33:32;;;;;;;2.08;0.90;;;;;;;31.19;58.83;99904.97;5091150;28;20138;-83
2023/07/29 12:36:18;;;;;;;2.10;0.77;;;;;;;31.10;58.88;99894.94;5076402;28;20039;-82
2023/07/29 12:39:04;;;;;;;2.47;0.90;;;;;;;31.07;62.34;99907.31;5090662;28;20063;-82
2023/07/29 12:41:51;;;;;;;3.35;0.82;;;;;;;31.05;62.14;99900.41;5090707;28;20032;-82
2023/07/29 12:44:37;;;;;;;2.60;0.95;;;;;;;30.91;60.50;99896.66;5091173;28;20037;-82
2023/07/29 12:47:23;;;;;;;2.45;1.10;;;;;;;30.96;62.36;99894.53;5090355;28;20096;-83
2023/07/29 12:50:09;;;;;;;2.03;0.80;;;;;;;30.93;63.39;99897.03;5061581;28;20039;-82
2023/07/29 12:52:55;;;;;;;3.30;0.90;;;;;;;30.87;65.00;99898.00;5090748;28;20053;-82
2023/07/29 12:55:40;;;;;;;2.50;0.80;;;;;;;30.83;66.68;99903.81;5074167;28;20043;-82
2023/07/29 12:58:26;;;;;;;3.45;0.90;;;;;;;30.76;66.93;99906.84;5070701;28;20036;-82